createdAt,value
2022-09-12T00:01:23.629Z,6.93
2022-09-12T00:03:58.273Z,6.82
2022-09-12T00:06:30.228Z,7.43
2022-09-12T00:09:02.220Z,6.88
2022-09-12T00:11:30.548Z,6.75
2022-09-12T00:14:00.797Z,7.18
2022-09-12T00:16:31.989Z,7.30
2022-09-12T00:19:00.780Z,7.65
2022-09-12T00:21:28.694Z,6.43
2022-09-12T00:23:56.805Z,6.53
2022-09-12T00:26:24.889Z,8.57
2022-09-12T00:28:52.952Z,6.95
2022-09-12T00:31:25.355Z,8.00
2022-09-12T00:33:56.618Z,7.80
2022-09-12T00:36:26.770Z,7.65
2022-09-12T00:38:55.176Z,6.80
2022-09-12T00:41:32.819Z,8.43
2022-09-12T00:44:10.791Z,8.07
2022-09-12T00:47:07.588Z,7.45
2022-09-12T00:50:00.987Z,7.40
2022-09-12T00:52:43.966Z,7.70
2022-09-12T00:55:24.355Z,7.82
2022-09-12T00:58:00.239Z,7.80
2022-09-12T01:00:28.968Z,7.70
2022-09-12T01:03:07.890Z,7.78
2022-09-12T01:05:40.189Z,8.23
2022-09-12T01:08:08.045Z,8.43
2022-09-12T01:10:37.963Z,8.90
2022-09-12T01:13:09.212Z,8.98
2022-09-12T01:15:39.725Z,9.02
2022-09-12T01:18:32.810Z,8.80
2022-09-12T01:21:56.046Z,8.90
2022-09-12T01:24:51.686Z,7.97
2022-09-12T01:27:57.717Z,7.72
2022-09-12T01:30:56.268Z,8.40
2022-09-12T01:33:55.572Z,7.97
2022-09-12T01:36:29.605Z,8.20
2022-09-12T01:39:25.116Z,7.78
2022-09-12T01:42:04.090Z,8.57
2022-09-12T01:45:03.467Z,9.27
2022-09-12T01:47:46.822Z,8.55
2022-09-12T01:50:27.400Z,7.88
2022-09-12T01:53:04.795Z,8.23
2022-09-12T01:55:46.376Z,8.90
2022-09-12T01:58:22.590Z,9.02
2022-09-12T02:01:11.331Z,8.13
2022-09-12T02:03:52.439Z,9.13
2022-09-12T02:06:40.261Z,8.48
2022-09-12T02:09:35.888Z,8.35
2022-09-12T02:12:06.242Z,8.70
2022-09-12T02:14:52.060Z,8.35
2022-09-12T02:17:26.328Z,8.40
2022-09-12T02:20:03.491Z,8.32
2022-09-12T02:22:34.124Z,7.95
2022-09-12T02:25:05.941Z,8.35
2022-09-12T02:27:44.794Z,8.52
2022-09-12T02:30:17.688Z,7.30
2022-09-12T02:33:01.908Z,7.93
2022-09-12T02:36:15.436Z,7.38
2022-09-12T02:38:48.046Z,7.95
2022-09-12T02:41:20.807Z,7.95
2022-09-12T02:43:50.800Z,7.68
2022-09-12T02:46:47.181Z,8.00
2022-09-12T02:49:16.934Z,8.77
2022-09-12T02:51:46.674Z,9.90
2022-09-12T02:54:17.686Z,9.18
2022-09-12T02:56:46.628Z,8.63
2022-09-12T02:59:19.427Z,9.05
2022-09-12T03:02:14.988Z,9.60
2022-09-12T03:05:23.223Z,9.57
2022-09-12T03:08:37.428Z,8.45
2022-09-12T03:12:02.318Z,8.75
2022-09-12T03:15:20.757Z,8.95
2022-09-12T03:18:43.786Z,8.88
2022-09-12T03:21:45.863Z,8.68
2022-09-12T03:24:38.181Z,8.77
2022-09-12T03:27:16.725Z,8.38
2022-09-12T03:29:47.976Z,8.90
2022-09-12T03:32:16.221Z,7.80
2022-09-12T03:34:44.068Z,8.52
2022-09-12T03:37:11.822Z,9.10
2022-09-12T03:39:39.702Z,8.18
2022-09-12T03:42:07.650Z,8.00
2022-09-12T03:44:35.390Z,7.95
2022-09-12T03:47:04.074Z,8.90
2022-09-12T03:49:32.992Z,8.43
2022-09-12T03:52:00.840Z,8.95
2022-09-12T03:54:28.722Z,9.13
2022-09-12T03:56:56.472Z,9.07
2022-09-12T03:59:24.198Z,10.23
2022-09-12T04:01:52.003Z,9.88
2022-09-12T04:04:19.786Z,8.93
2022-09-12T04:06:47.528Z,9.88
2022-09-12T04:09:15.365Z,9.27
2022-09-12T04:11:43.072Z,9.27
2022-09-12T04:14:10.919Z,8.70
2022-09-12T04:16:38.734Z,9.45
2022-09-12T04:19:06.561Z,9.82
2022-09-12T04:21:34.600Z,8.73
2022-09-12T04:24:02.619Z,9.45
2022-09-12T04:26:31.796Z,10.40
2022-09-12T04:28:59.552Z,9.65
2022-09-12T04:31:27.636Z,9.48
2022-09-12T04:33:58.005Z,10.38
2022-09-12T04:36:28.025Z,9.63
2022-09-12T04:38:56.355Z,11.02
2022-09-12T04:41:28.518Z,10.32
2022-09-12T04:44:02.177Z,10.73
2022-09-12T04:46:33.677Z,10.88
2022-09-12T04:49:02.013Z,10.63
2022-09-12T04:51:36.292Z,10.90
2022-09-12T04:54:15.178Z,11.27
2022-09-12T04:56:46.373Z,10.68
2022-09-12T04:59:16.244Z,11.07
2022-09-12T05:01:44.083Z,10.20
2022-09-12T05:04:13.353Z,9.98
2022-09-12T05:06:42.654Z,9.25
2022-09-12T05:09:14.154Z,9.02
2022-09-12T05:12:03.621Z,9.57
2022-09-12T05:14:33.094Z,10.18
2022-09-12T05:17:02.031Z,10.68
2022-09-12T05:19:31.078Z,8.95
2022-09-12T05:21:59.617Z,9.30
2022-09-12T05:24:27.618Z,9.63
2022-09-12T05:26:55.365Z,10.00
2022-09-12T05:29:25.267Z,9.55
2022-09-12T05:31:53.269Z,9.85
2022-09-12T05:34:21.650Z,9.80
2022-09-12T05:36:49.558Z,9.68
2022-09-12T05:39:18.566Z,10.57
2022-09-12T05:41:47.364Z,10.95
2022-09-12T05:44:15.377Z,9.43
2022-09-12T05:46:45.647Z,9.15
2022-09-12T05:49:14.675Z,8.93
2022-09-12T05:51:45.478Z,9.73
2022-09-12T05:54:18.107Z,7.95
2022-09-12T05:56:47.297Z,8.93
2022-09-12T05:59:21.245Z,9.38
2022-09-12T06:01:49.292Z,9.68
2022-09-12T06:04:17.618Z,10.20
2022-09-12T06:06:46.949Z,9.30
2022-09-12T06:09:17.346Z,10.48
2022-09-12T06:11:46.567Z,10.57
2022-09-12T06:14:16.884Z,11.52
2022-09-12T06:16:46.324Z,10.63
2022-09-12T06:19:20.260Z,10.18
2022-09-12T06:21:49.785Z,10.50
2022-09-12T06:24:18.996Z,11.10
2022-09-12T06:26:52.716Z,11.52
2022-09-12T06:31:48.343Z,9.50
2022-09-12T06:34:16.613Z,10.38
2022-09-12T06:36:47.575Z,10.52
2022-09-12T06:39:18.782Z,9.20
2022-09-12T06:41:48.797Z,9.32
2022-09-12T06:44:22.500Z,10.13
2022-09-12T06:46:50.705Z,10.55
2022-09-12T06:49:18.596Z,10.23
2022-09-12T06:51:46.420Z,9.18
2022-09-12T06:54:17.015Z,9.90
2022-09-12T06:56:45.334Z,10.25
2022-09-12T06:59:13.775Z,10.48
2022-09-12T07:01:42.103Z,10.93
2022-09-12T07:04:10.599Z,10.25
2022-09-12T07:06:41.981Z,10.27
2022-09-12T07:09:14.053Z,9.93
2022-09-12T07:11:42.998Z,9.77
2022-09-12T07:14:14.080Z,10.45
2022-09-12T07:16:42.682Z,9.18
2022-09-12T07:19:12.517Z,8.68
2022-09-12T07:21:41.255Z,9.80
2022-09-12T07:24:10.887Z,10.18
2022-09-12T07:26:40.791Z,9.23
2022-09-12T07:29:35.927Z,9.63
2022-09-12T07:32:06.610Z,9.07
2022-09-12T07:34:34.863Z,8.80
2022-09-12T07:37:02.701Z,9.25
2022-09-12T07:39:30.467Z,9.20
2022-09-12T07:45:42.235Z,8.70
2022-09-12T07:48:10.629Z,7.53
2022-09-12T07:50:44.535Z,8.43
2022-09-12T07:53:13.137Z,8.75
2022-09-12T07:55:40.858Z,8.10
2022-09-12T07:58:08.627Z,8.48
2022-09-12T08:00:37.942Z,8.40
2022-09-12T08:03:07.359Z,9.25
2022-09-12T08:05:35.268Z,8.52
2022-09-12T08:08:03.658Z,9.05
2022-09-12T08:10:31.568Z,9.93
2022-09-12T08:12:59.540Z,9.75
2022-09-12T08:15:27.410Z,9.77
2022-09-12T08:17:55.260Z,10.35
2022-09-12T08:20:27.693Z,10.05
2022-09-12T08:22:56.520Z,10.00
2022-09-12T08:25:24.256Z,9.15
2022-09-12T08:27:52.279Z,9.13
2022-09-12T08:30:20.125Z,7.28
2022-09-12T08:32:47.950Z,10.07
2022-09-12T08:35:16.037Z,7.95
2022-09-12T08:37:43.822Z,9.10
2022-09-12T08:40:17.090Z,7.60
2022-09-12T08:43:08.500Z,7.63
2022-09-12T08:45:54.295Z,7.57
2022-09-12T08:48:22.289Z,6.72
2022-09-12T08:50:50.228Z,7.50
2022-09-12T08:53:24.626Z,9.02
2022-09-12T08:55:58.791Z,7.80
2022-09-12T08:58:29.130Z,8.55
2022-09-12T09:01:24.713Z,7.05
2022-09-12T09:04:33.072Z,7.97
2022-09-12T09:07:40.919Z,7.43
2022-09-12T09:10:28.136Z,6.55
2022-09-12T09:14:05.579Z,7.10
2022-09-12T09:16:41.265Z,7.43
2022-09-12T09:19:18.301Z,6.75
2022-09-12T09:22:17.217Z,6.50
2022-09-12T09:25:02.595Z,6.55
2022-09-12T09:27:54.545Z,5.78
2022-09-12T09:30:22.283Z,7.22
2022-09-12T09:32:56.018Z,6.88
2022-09-12T09:35:46.578Z,7.57
2022-09-12T09:38:49.306Z,8.00
2022-09-12T09:42:11.623Z,7.65
2022-09-12T09:44:39.707Z,5.80
2022-09-12T09:47:12.609Z,5.72
2022-09-12T09:49:40.861Z,5.78
2022-09-12T09:52:11.985Z,5.47
2022-09-12T09:54:43.462Z,4.80
2022-09-12T09:57:36.195Z,5.63
2022-09-12T10:00:32.471Z,4.95
2022-09-12T10:03:13.191Z,4.57
2022-09-12T10:06:18.804Z,4.25
2022-09-12T10:08:48.023Z,4.60
2022-09-12T10:11:15.762Z,4.35
2022-09-12T10:13:54.539Z,4.28
2022-09-12T10:16:31.765Z,3.95
2022-09-12T10:19:02.841Z,3.55
2022-09-12T10:21:47.586Z,3.95
2022-09-12T10:24:34.070Z,4.15
2022-09-12T10:27:13.340Z,4.45
2022-09-12T10:29:54.649Z,4.28
2022-09-12T10:32:31.371Z,4.65
2022-09-12T10:35:30.514Z,3.58
2022-09-12T10:38:10.846Z,3.50
2022-09-12T10:40:43.129Z,3.60
2022-09-12T10:43:42.374Z,3.67
2022-09-12T10:46:19.394Z,3.65
2022-09-12T10:49:11.811Z,3.40
2022-09-12T10:51:39.549Z,3.00
2022-09-12T10:54:13.097Z,2.97
2022-09-12T11:00:20.182Z,3.25
2022-09-12T11:03:17.768Z,3.35
2022-09-12T11:05:52.276Z,3.25
2022-09-12T11:09:20.285Z,3.22
2022-09-12T11:12:09.697Z,3.70
2022-09-12T11:15:21.515Z,3.17
2022-09-12T11:18:13.978Z,3.50
2022-09-12T11:21:12.005Z,2.88
2022-09-12T11:24:13.849Z,2.70
2022-09-12T11:27:38.071Z,2.90
2022-09-12T11:30:15.771Z,2.55
2022-09-12T11:33:25.452Z,3.38
2022-09-12T11:35:55.802Z,3.00
2022-09-12T11:38:40.578Z,3.05
2022-09-12T11:41:23.390Z,3.40
2022-09-12T11:43:58.846Z,2.50
2022-09-12T11:46:38.177Z,3.03
2022-09-12T11:49:17.050Z,2.67
2022-09-12T11:52:08.806Z,2.60
2022-09-12T11:54:38.458Z,2.40
2022-09-12T11:57:23.681Z,2.13
2022-09-12T12:00:18.304Z,2.85
2022-09-12T12:03:07.022Z,2.33
2022-09-12T12:05:37.650Z,2.88
2022-09-12T12:08:06.633Z,2.42
2022-09-12T12:10:49.986Z,2.25
2022-09-12T12:13:55.293Z,2.70
2022-09-12T12:16:37.756Z,2.58
2022-09-12T12:19:34.313Z,2.60
2022-09-12T12:22:24.429Z,2.80
2022-09-12T12:25:29.015Z,2.42
2022-09-12T12:28:02.155Z,2.17
2022-09-12T12:30:29.906Z,2.30
2022-09-12T12:33:27.307Z,2.83
2022-09-12T12:36:01.031Z,2.55
2022-09-12T12:38:30.923Z,3.20
2022-09-12T12:41:17.235Z,2.35
2022-09-12T12:43:56.561Z,2.10
2022-09-12T12:46:27.641Z,1.88
2022-09-12T12:49:20.593Z,1.90
2022-09-12T12:51:54.025Z,3.53
2022-09-12T12:54:41.138Z,2.45
2022-09-12T12:57:18.002Z,2.22
2022-09-12T13:00:16.182Z,2.28
2022-09-12T13:02:59.754Z,2.15
2022-09-12T13:05:31.261Z,2.10
2022-09-12T13:08:11.506Z,2.08
2022-09-12T13:10:48.744Z,2.05
2022-09-12T13:13:34.083Z,1.70
2022-09-12T13:16:02.382Z,1.70
2022-09-12T13:18:48.326Z,1.88
2022-09-12T13:21:21.756Z,2.10
2022-09-12T13:24:17.174Z,2.15
2022-09-12T13:26:47.576Z,2.30
2022-09-12T13:29:19.776Z,2.38
2022-09-12T13:31:58.069Z,1.87
2022-09-12T13:34:41.733Z,2.10
2022-09-12T13:38:04.140Z,2.00
2022-09-12T13:41:13.876Z,1.90
2022-09-12T13:43:47.645Z,2.40
2022-09-12T13:46:31.386Z,1.73
2022-09-12T13:49:05.873Z,2.03
2022-09-12T13:51:34.149Z,2.85
2022-09-12T13:54:05.389Z,2.15
2022-09-12T13:56:33.280Z,2.10
2022-09-12T13:59:03.057Z,2.10
2022-09-12T14:01:44.327Z,2.03
2022-09-12T14:04:36.957Z,1.52
2022-09-12T14:07:22.467Z,1.70
2022-09-12T14:10:00.074Z,2.50
2022-09-12T14:12:32.782Z,1.40
2022-09-12T14:15:01.023Z,1.95
2022-09-12T14:17:36.187Z,1.67
2022-09-12T14:20:18.553Z,2.58
2022-09-12T14:22:50.912Z,1.93
2022-09-12T14:25:25.924Z,3.47
2022-09-12T14:27:56.665Z,2.50
2022-09-12T14:30:32.914Z,1.85
2022-09-12T14:33:12.893Z,2.47
2022-09-12T14:35:49.980Z,1.80
2022-09-12T14:38:17.576Z,2.10
2022-09-12T14:40:49.277Z,2.40
2022-09-12T14:43:31.618Z,1.90
2022-09-12T14:46:15.887Z,1.58
2022-09-12T14:48:53.357Z,1.90
2022-09-12T14:51:28.709Z,1.70
2022-09-12T14:53:56.617Z,1.90
2022-09-12T14:56:44.158Z,1.58
2022-09-12T14:59:36.247Z,1.83
2022-09-12T15:02:23.168Z,2.00
2022-09-12T15:04:52.310Z,1.80
2022-09-12T15:07:41.903Z,1.70
2022-09-12T15:10:31.454Z,1.83
2022-09-12T15:13:12.050Z,1.90
2022-09-12T15:15:42.879Z,1.90
2022-09-12T15:18:10.940Z,1.65
2022-09-12T15:20:41.543Z,3.10
2022-09-12T15:23:30.046Z,1.70
2022-09-12T15:25:57.844Z,1.73
2022-09-12T15:28:26.929Z,1.80
2022-09-12T15:30:57.046Z,1.77
2022-09-12T15:33:25.906Z,2.28
2022-09-12T15:35:53.849Z,1.50
2022-09-12T15:38:25.762Z,1.73
2022-09-12T15:40:54.723Z,1.80
2022-09-12T15:43:23.447Z,2.15
2022-09-12T15:45:52.353Z,2.33
2022-09-12T15:48:21.308Z,2.10
2022-09-12T15:50:49.233Z,2.20
2022-09-12T15:53:18.181Z,2.00
2022-09-12T15:55:46.199Z,1.70
2022-09-12T15:58:14.174Z,1.92
2022-09-12T16:00:41.940Z,1.80
2022-09-12T16:03:25.592Z,1.98
2022-09-12T16:05:58.644Z,2.15
2022-09-12T16:11:02.061Z,1.70
2022-09-12T16:13:30.058Z,1.95
2022-09-12T16:15:59.424Z,1.70
2022-09-12T16:18:28.335Z,2.45
2022-09-12T16:20:57.261Z,1.70
2022-09-12T16:23:25.320Z,1.58
2022-09-12T16:26:05.713Z,1.75
2022-09-12T16:28:33.898Z,1.73
2022-09-12T16:31:05.573Z,1.80
2022-09-12T16:33:33.939Z,2.08
2022-09-12T16:36:11.002Z,1.75
2022-09-12T16:38:47.652Z,1.85
2022-09-12T16:41:17.773Z,1.83
2022-09-12T16:44:11.225Z,1.60
2022-09-12T16:46:39.048Z,1.90
2022-09-12T16:49:07.158Z,2.33
2022-09-12T16:51:37.984Z,1.45
2022-09-12T16:54:05.732Z,3.65
2022-09-12T16:56:33.515Z,1.70
2022-09-12T16:59:01.263Z,1.70
2022-09-12T17:01:29.091Z,1.90
2022-09-12T17:03:58.824Z,1.67
2022-09-12T17:06:27.855Z,2.00
2022-09-12T17:09:00.865Z,1.83
2022-09-12T17:11:36.522Z,1.55
2022-09-12T17:14:08.827Z,1.92
2022-09-12T17:16:46.917Z,2.50
2022-09-12T17:19:28.154Z,2.45
2022-09-12T17:21:57.534Z,4.30
2022-09-12T17:24:25.897Z,2.40
2022-09-12T17:26:53.876Z,2.17
2022-09-12T17:29:21.612Z,2.33
2022-09-12T17:31:49.407Z,2.95
2022-09-12T17:34:17.834Z,4.20
2022-09-12T17:36:48.452Z,3.85
2022-09-12T17:39:16.379Z,3.38
2022-09-12T17:41:46.095Z,4.03
2022-09-12T17:44:15.145Z,3.90
2022-09-12T17:46:43.574Z,4.30
2022-09-12T17:49:17.353Z,3.92
2022-09-12T17:51:45.522Z,3.92
2022-09-12T17:54:16.698Z,2.90
2022-09-12T17:56:46.600Z,3.00
2022-09-12T17:59:20.606Z,2.70
2022-09-12T18:02:07.605Z,2.40
2022-09-12T18:04:36.302Z,2.38
2022-09-12T18:07:04.430Z,2.25
2022-09-12T18:09:32.705Z,2.13
2022-09-12T18:12:00.486Z,1.80
2022-09-12T18:14:28.667Z,2.08
2022-09-12T18:17:00.341Z,3.38
2022-09-12T18:19:28.401Z,2.38
2022-09-12T18:21:56.521Z,2.10
2022-09-12T18:24:24.627Z,2.45
2022-09-12T18:26:52.434Z,2.20
2022-09-12T18:29:20.616Z,2.03
2022-09-12T18:31:48.746Z,1.90
2022-09-12T18:34:18.205Z,2.10
2022-09-12T18:36:49.562Z,1.85
2022-09-12T18:39:18.525Z,2.03
2022-09-12T18:41:46.480Z,2.08
2022-09-12T18:44:14.269Z,2.00
2022-09-12T18:46:42.127Z,3.08
2022-09-12T18:49:10.719Z,2.42
2022-09-12T18:51:40.238Z,2.42
2022-09-12T18:54:14.016Z,2.67
2022-09-12T18:56:43.965Z,2.78
2022-09-12T18:59:14.152Z,2.60
2022-09-12T19:01:43.003Z,1.98
2022-09-12T19:04:13.017Z,2.17
2022-09-12T19:06:44.569Z,1.80
2022-09-12T19:09:15.469Z,2.45
2022-09-12T19:11:49.646Z,2.35
2022-09-12T19:14:42.909Z,2.60
2022-09-12T19:17:11.097Z,2.37
2022-09-12T19:19:40.688Z,2.03
2022-09-12T19:22:08.526Z,2.33
2022-09-12T19:24:36.248Z,2.40
2022-09-12T19:27:05.213Z,2.20
2022-09-12T19:29:33.048Z,1.95
2022-09-12T19:32:00.769Z,2.13
2022-09-12T19:34:28.559Z,2.08
2022-09-12T19:36:56.440Z,2.40
2022-09-12T19:39:24.162Z,2.00
2022-09-12T19:41:51.884Z,2.17
2022-09-12T19:44:20.217Z,2.05
2022-09-12T19:46:48.397Z,1.80
2022-09-12T19:49:16.240Z,2.00
2022-09-12T19:51:44.033Z,2.20
2022-09-12T19:54:11.830Z,2.00
2022-09-12T19:56:39.611Z,1.98
2022-09-12T19:59:07.418Z,1.80
2022-09-12T20:01:37.243Z,2.63
2022-09-12T20:04:06.780Z,1.77
2022-09-12T20:06:35.275Z,2.70
2022-09-12T20:09:03.252Z,2.10
2022-09-12T20:11:31.552Z,2.05
2022-09-12T20:13:59.575Z,2.10
2022-09-12T20:16:31.225Z,2.00
2022-09-12T20:19:03.870Z,2.13
2022-09-12T20:21:34.159Z,2.17
2022-09-12T20:24:14.537Z,2.13
2022-09-12T20:26:43.060Z,1.98
2022-09-12T20:29:11.181Z,2.10
2022-09-12T20:31:41.606Z,2.17
2022-09-12T20:34:17.531Z,2.20
2022-09-12T20:36:46.243Z,2.25
2022-09-12T20:39:22.741Z,2.00
2022-09-12T20:41:50.992Z,1.90
2022-09-12T20:44:18.900Z,1.98
2022-09-12T20:46:47.024Z,2.00
2022-09-12T20:49:14.769Z,2.20
2022-09-12T20:51:43.013Z,1.80
2022-09-12T20:54:11.370Z,1.77
2022-09-12T20:56:39.141Z,2.13
2022-09-12T20:59:07.078Z,1.92
2022-09-12T21:01:34.918Z,1.55
2022-09-12T21:04:03.462Z,1.42
2022-09-12T21:06:32.407Z,1.45
2022-09-12T21:09:00.560Z,1.50
2022-09-12T21:11:29.210Z,1.42
2022-09-12T21:13:57.912Z,1.85
2022-09-12T21:16:25.763Z,1.60
2022-09-12T21:19:00.161Z,1.60
2022-09-12T21:21:27.979Z,1.80
2022-09-12T21:24:05.598Z,1.30
2022-09-12T21:26:33.344Z,1.63
2022-09-12T21:29:01.442Z,1.58
2022-09-12T21:31:29.245Z,2.03
2022-09-12T21:33:57.083Z,1.65
2022-09-12T21:36:25.241Z,1.75
2022-09-12T21:38:53.093Z,1.92
2022-09-12T21:41:20.860Z,2.25
2022-09-12T21:43:48.696Z,1.90
2022-09-12T21:46:16.662Z,1.65
2022-09-12T21:48:44.412Z,2.00
2022-09-12T21:51:12.160Z,2.20
2022-09-12T21:53:40.233Z,2.05
2022-09-12T21:56:08.964Z,2.20
2022-09-12T21:58:37.714Z,1.92
2022-09-12T22:01:08.648Z,2.03
2022-09-12T22:03:36.670Z,2.00
2022-09-12T22:06:06.828Z,2.15
2022-09-12T22:08:37.266Z,2.20
2022-09-12T22:11:09.700Z,2.10
2022-09-12T22:13:43.926Z,2.65
2022-09-12T22:16:12.713Z,2.38
2022-09-12T22:18:41.082Z,2.10
2022-09-12T22:21:16.199Z,2.00
2022-09-12T22:24:02.620Z,2.00
2022-09-12T22:26:35.032Z,2.15
2022-09-12T22:29:02.788Z,2.05
2022-09-12T22:31:31.049Z,1.85
2022-09-12T22:33:59.042Z,2.35
2022-09-12T22:36:31.007Z,2.08
2022-09-12T22:38:59.786Z,2.05
2022-09-12T22:41:28.509Z,2.38
2022-09-12T22:43:57.425Z,2.30
2022-09-12T22:46:25.579Z,1.90
2022-09-12T22:48:55.696Z,2.28
2022-09-12T22:51:23.613Z,2.03
2022-09-12T22:53:51.887Z,2.20
2022-09-12T22:56:19.699Z,1.92
2022-09-12T22:58:47.785Z,1.90
2022-09-12T23:01:15.788Z,2.40
2022-09-12T23:03:43.717Z,2.25
2022-09-12T23:06:12.260Z,2.00
2022-09-12T23:08:40.254Z,2.17
2022-09-12T23:11:12.899Z,2.13
2022-09-12T23:13:44.861Z,2.23
2022-09-12T23:16:25.886Z,2.03
2022-09-12T23:18:53.813Z,1.77
2022-09-12T23:21:22.330Z,2.28
2022-09-12T23:23:50.501Z,2.13
2022-09-12T23:26:21.730Z,1.65
2022-09-12T23:28:56.118Z,2.10
2022-09-12T23:31:29.806Z,2.10
2022-09-12T23:34:02.078Z,1.95
2022-09-12T23:36:30.516Z,2.42
2022-09-12T23:38:58.442Z,2.53
2022-09-12T23:41:26.308Z,2.08
2022-09-12T23:43:54.447Z,2.15
2022-09-12T23:46:22.691Z,1.90
2022-09-12T23:48:53.219Z,2.10
2022-09-12T23:51:24.024Z,2.15
2022-09-12T23:53:51.781Z,2.33
2022-09-12T23:56:19.577Z,2.33
2022-09-12T23:58:47.645Z,1.80
